createdAt,value
2017-11-08T00:00:45.891Z,98808
2017-11-08T00:03:14.852Z,98810
2017-11-08T00:05:42.951Z,98812
2017-11-08T00:08:13.836Z,98814
2017-11-08T00:10:41.927Z,98818
2017-11-08T00:13:10.019Z,98810
2017-11-08T00:15:38.098Z,98811
2017-11-08T00:18:06.205Z,98819
2017-11-08T00:20:35.060Z,98825
2017-11-08T00:23:03.254Z,98818
2017-11-08T00:25:31.546Z,98818
2017-11-08T00:28:00.396Z,98817
2017-11-08T00:30:28.481Z,98825
2017-11-08T00:32:56.567Z,98824
2017-11-08T00:35:24.665Z,98814
2017-11-08T00:37:52.765Z,98822
2017-11-08T00:40:20.850Z,98826
2017-11-08T00:42:48.927Z,98823
2017-11-08T00:45:17.140Z,98813
2017-11-08T00:47:45.993Z,98806
2017-11-08T00:50:14.085Z,98810
2017-11-08T00:52:42.166Z,98827
2017-11-08T00:55:10.243Z,98839
2017-11-08T00:57:52.813Z,98832
2017-11-08T01:00:20.900Z,98833
2017-11-08T01:02:48.991Z,98827
2017-11-08T01:05:17.332Z,98821
2017-11-08T01:07:45.424Z,98825
2017-11-08T01:10:13.503Z,98815
2017-11-08T01:12:41.619Z,98810
2017-11-08T01:15:09.712Z,98809
2017-11-08T01:17:37.822Z,98816
2017-11-08T01:20:06.272Z,98815
2017-11-08T01:22:34.370Z,98824
2017-11-08T01:25:02.448Z,98816
2017-11-08T01:27:30.551Z,98818
2017-11-08T01:29:59.397Z,98812
2017-11-08T01:32:27.476Z,98815
2017-11-08T01:34:55.557Z,98803
2017-11-08T01:37:26.595Z,98815
2017-11-08T01:39:54.681Z,98813
2017-11-08T01:42:22.768Z,98811
2017-11-08T01:44:50.850Z,98803
2017-11-08T01:47:19.711Z,98786
2017-11-08T01:49:47.810Z,98797
2017-11-08T01:52:16.837Z,98784
2017-11-08T01:54:44.948Z,98779
2017-11-08T01:57:13.032Z,98763
2017-11-08T01:59:41.143Z,98763
2017-11-08T02:02:10.007Z,98764
2017-11-08T02:04:38.115Z,98770
2017-11-08T02:07:06.197Z,98773
2017-11-08T02:09:34.278Z,98775
2017-11-08T02:12:02.361Z,98779
2017-11-08T02:14:30.445Z,98772
2017-11-08T02:16:58.548Z,98779
2017-11-08T02:19:26.678Z,98784
2017-11-08T02:21:54.809Z,98770
2017-11-08T02:24:23.651Z,98763
2017-11-08T02:26:52.577Z,98756
2017-11-08T02:29:21.436Z,98760
2017-11-08T02:31:49.537Z,98753
2017-11-08T02:34:17.632Z,98752
2017-11-08T02:36:46.489Z,98763
2017-11-08T02:39:14.576Z,98767
2017-11-08T02:41:42.665Z,98759
2017-11-08T02:44:11.527Z,98770
2017-11-08T02:46:39.644Z,98770
2017-11-08T02:49:07.711Z,98770
2017-11-08T02:51:35.837Z,98771
2017-11-08T02:54:03.907Z,98777
2017-11-08T02:56:31.998Z,98774
2017-11-08T02:59:00.097Z,98791
2017-11-08T03:01:28.980Z,98795
2017-11-08T03:03:57.829Z,98788
2017-11-08T03:06:25.924Z,98781
2017-11-08T03:08:54.040Z,98778
2017-11-08T03:11:22.146Z,98781
2017-11-08T03:13:50.229Z,98774
2017-11-08T03:16:18.336Z,98771
2017-11-08T03:18:47.180Z,98781
2017-11-08T03:21:15.280Z,98773
2017-11-08T03:23:43.347Z,98781
2017-11-08T03:26:11.453Z,98785
2017-11-08T03:28:40.295Z,98793
2017-11-08T03:31:08.389Z,98797
2017-11-08T03:33:36.472Z,98787
2017-11-08T03:36:05.324Z,98794
2017-11-08T03:38:33.407Z,98783
2017-11-08T03:41:01.513Z,98798
2017-11-08T03:43:29.963Z,98788
2017-11-08T03:45:58.052Z,98798
2017-11-08T03:48:26.132Z,98795
2017-11-08T03:50:55.005Z,98803
2017-11-08T03:53:23.098Z,98804
2017-11-08T03:55:51.181Z,98801
2017-11-08T03:58:20.028Z,98805
2017-11-08T04:00:48.145Z,98806
2017-11-08T04:03:16.998Z,98802
2017-11-08T04:05:45.078Z,98795
2017-11-08T04:08:13.162Z,98787
2017-11-08T04:10:41.246Z,98784
2017-11-08T04:13:09.331Z,98787
2017-11-08T04:15:38.174Z,98787
2017-11-08T04:18:06.284Z,98788
2017-11-08T04:20:35.123Z,98778
2017-11-08T04:23:03.207Z,98788
2017-11-08T04:25:31.277Z,98792
2017-11-08T04:27:59.360Z,98797
2017-11-08T04:30:27.432Z,98800
2017-11-08T04:32:55.519Z,98795
2017-11-08T04:35:23.596Z,98786
2017-11-08T04:37:51.679Z,98781
2017-11-08T04:40:19.762Z,98793
2017-11-08T04:42:48.611Z,98786
2017-11-08T04:45:16.684Z,98787
2017-11-08T04:47:44.776Z,98785
2017-11-08T04:50:12.846Z,98783
2017-11-08T04:52:40.938Z,98788
2017-11-08T04:55:09.776Z,98794
2017-11-08T04:57:38.629Z,98788
2017-11-08T05:00:07.516Z,98777
2017-11-08T05:02:36.367Z,98776
2017-11-08T05:05:04.450Z,98773
2017-11-08T05:07:32.531Z,98774
2017-11-08T05:10:00.620Z,98773
2017-11-08T05:12:29.484Z,98778
2017-11-08T05:14:57.558Z,98781
2017-11-08T05:17:25.639Z,98777
2017-11-08T05:19:53.711Z,98782
2017-11-08T05:22:21.796Z,98781
2017-11-08T05:24:49.875Z,98792
2017-11-08T05:27:18.766Z,98775
2017-11-08T05:29:47.604Z,98786
2017-11-08T05:32:15.721Z,98798
2017-11-08T05:34:43.798Z,98786
2017-11-08T05:37:11.873Z,98795
2017-11-08T05:39:39.948Z,98795
2017-11-08T05:42:08.011Z,98796
2017-11-08T05:44:36.102Z,98806
2017-11-08T05:47:04.937Z,98806
2017-11-08T05:49:33.018Z,98809
2017-11-08T05:52:01.097Z,98805
2017-11-08T05:54:29.172Z,98818
2017-11-08T05:56:57.243Z,98820
2017-11-08T05:59:25.338Z,98832
2017-11-08T06:01:53.413Z,98830
2017-11-08T06:04:21.491Z,98832
2017-11-08T06:06:49.549Z,98842
2017-11-08T06:09:17.631Z,98837
2017-11-08T06:11:45.700Z,98840
2017-11-08T06:14:13.780Z,98836
2017-11-08T06:16:42.630Z,98831
2017-11-08T06:19:10.713Z,98842
2017-11-08T06:21:38.786Z,98844
2017-11-08T06:24:06.869Z,98835
2017-11-08T06:26:34.938Z,98840
2017-11-08T06:29:03.017Z,98841
2017-11-08T06:31:31.087Z,98850
2017-11-08T06:33:59.161Z,98852
2017-11-08T06:36:27.233Z,98855
2017-11-08T06:38:55.332Z,98856
2017-11-08T06:41:24.186Z,98862
2017-11-08T06:43:52.268Z,98853
2017-11-08T06:46:20.366Z,98859
2017-11-08T06:48:49.216Z,98860
2017-11-08T06:51:17.314Z,98862
2017-11-08T06:53:45.379Z,98856
2017-11-08T06:56:13.467Z,98853
2017-11-08T06:58:42.319Z,98864
2017-11-08T07:01:10.408Z,98867
2017-11-08T07:03:38.471Z,98870
2017-11-08T07:06:06.562Z,98867
2017-11-08T07:08:34.632Z,98869
2017-11-08T07:11:02.717Z,98864
2017-11-08T07:13:30.803Z,98864
2017-11-08T07:15:58.890Z,98859
2017-11-08T07:18:27.730Z,98857
2017-11-08T07:20:55.817Z,98871
2017-11-08T07:23:23.900Z,98872
2017-11-08T07:25:52.002Z,98870
2017-11-08T07:28:20.106Z,98867
2017-11-08T07:30:48.197Z,98869
2017-11-08T07:33:16.293Z,98869
2017-11-08T07:35:45.159Z,98864
2017-11-08T07:38:13.247Z,98858
2017-11-08T07:40:41.343Z,98862
2017-11-08T07:43:10.198Z,98867
2017-11-08T07:45:38.303Z,98874
2017-11-08T07:48:07.156Z,98890
2017-11-08T07:50:35.227Z,98891
2017-11-08T07:53:03.316Z,98885
2017-11-08T07:55:37.064Z,98887
2017-11-08T07:58:05.168Z,98884
2017-11-08T08:00:33.295Z,98883
2017-11-08T08:03:02.144Z,98891
2017-11-08T08:05:30.230Z,98889
2017-11-08T08:07:58.316Z,98874
2017-11-08T08:10:27.180Z,98879
2017-11-08T08:12:55.256Z,98879
2017-11-08T08:15:23.339Z,98879
2017-11-08T08:17:51.413Z,98883
2017-11-08T08:20:19.505Z,98876
2017-11-08T08:22:48.346Z,98884
2017-11-08T08:25:17.315Z,98886
2017-11-08T08:27:45.379Z,98882
2017-11-08T08:30:13.476Z,98881
2017-11-08T08:32:41.556Z,98890
2017-11-08T08:35:10.405Z,98884
2017-11-08T08:37:38.482Z,98886
2017-11-08T08:40:07.333Z,98894
2017-11-08T08:42:35.417Z,98891
2017-11-08T08:45:03.499Z,98896
2017-11-08T08:47:31.577Z,98893
2017-11-08T08:50:00.424Z,98895
2017-11-08T08:52:28.546Z,98909
2017-11-08T08:54:57.417Z,98911
2017-11-08T08:57:25.497Z,98913
2017-11-08T08:59:53.593Z,98922
2017-11-08T09:02:25.330Z,98920
2017-11-08T09:04:53.408Z,98929
2017-11-08T09:07:22.251Z,98928
2017-11-08T09:09:50.328Z,98926
2017-11-08T09:12:18.408Z,98931
2017-11-08T09:14:46.492Z,98929
2017-11-08T09:17:14.573Z,98930
2017-11-08T09:19:42.654Z,98932
2017-11-08T09:22:10.753Z,98933
2017-11-08T09:24:54.118Z,98943
2017-11-08T09:27:22.208Z,98945
2017-11-08T09:29:56.216Z,98940
2017-11-08T09:32:24.291Z,98938
2017-11-08T09:34:52.360Z,98943
2017-11-08T09:37:26.066Z,98956
2017-11-08T09:39:54.136Z,98955
2017-11-08T09:42:22.228Z,98963
2017-11-08T09:44:50.316Z,98964
2017-11-08T09:47:19.180Z,98968
2017-11-08T09:49:47.260Z,98966
2017-11-08T09:52:15.336Z,98960
2017-11-08T09:54:43.426Z,98964
2017-11-08T09:57:11.497Z,98969
2017-11-08T09:59:54.060Z,98961
2017-11-08T10:02:22.144Z,98969
2017-11-08T10:04:50.228Z,98962
2017-11-08T10:07:18.319Z,98960
2017-11-08T10:09:52.451Z,98968
2017-11-08T10:12:20.464Z,98960
2017-11-08T10:14:48.556Z,98958
2017-11-08T10:17:16.711Z,98956
2017-11-08T10:19:44.731Z,98941
2017-11-08T10:22:12.804Z,98940
2017-11-08T10:24:42.635Z,98934
2017-11-08T10:27:10.725Z,98934
2017-11-08T10:29:38.811Z,98934
2017-11-08T10:32:06.892Z,98938
2017-11-08T10:34:34.986Z,98935
2017-11-08T10:37:03.067Z,98933
2017-11-08T10:39:31.152Z,98935
2017-11-08T10:41:59.251Z,98929
2017-11-08T10:44:27.307Z,98930
2017-11-08T10:46:56.157Z,98933
2017-11-08T10:49:30.625Z,98930
2017-11-08T10:51:58.712Z,98936
2017-11-08T10:54:26.794Z,98935
2017-11-08T10:56:54.876Z,98936
2017-11-08T10:59:27.930Z,98941
2017-11-08T11:01:56.780Z,98943
2017-11-08T11:04:25.639Z,98934
2017-11-08T11:06:53.735Z,98945
2017-11-08T11:09:22.708Z,98954
2017-11-08T11:11:50.804Z,98946
2017-11-08T11:14:18.888Z,98946
2017-11-08T11:16:47.744Z,98935
2017-11-08T11:19:20.632Z,98939
2017-11-08T11:21:48.729Z,98944
2017-11-08T11:24:16.856Z,98944
2017-11-08T11:26:44.925Z,98943
2017-11-08T11:29:13.777Z,98953
2017-11-08T11:31:42.636Z,98955
2017-11-08T11:34:10.721Z,98963
2017-11-08T11:36:38.809Z,98965
2017-11-08T11:39:07.674Z,98980
2017-11-08T11:41:35.761Z,98980
2017-11-08T11:44:03.849Z,98989
2017-11-08T11:46:31.945Z,98992
2017-11-08T11:49:00.789Z,98992
2017-11-08T11:51:32.787Z,98986
2017-11-08T11:54:00.870Z,98991
2017-11-08T11:56:28.963Z,98978
2017-11-08T11:58:57.044Z,98983
2017-11-08T12:01:25.142Z,98979
2017-11-08T12:03:53.222Z,98980
2017-11-08T12:06:21.340Z,98981
2017-11-08T12:08:50.182Z,98980
2017-11-08T12:11:19.180Z,98981
2017-11-08T12:13:53.649Z,98975
2017-11-08T12:16:21.747Z,98976
2017-11-08T12:18:49.832Z,98975
2017-11-08T12:21:17.946Z,98964
2017-11-08T12:23:46.036Z,98974
2017-11-08T12:26:14.902Z,98978
2017-11-08T12:28:44.864Z,98976
2017-11-08T12:31:12.981Z,98965
2017-11-08T12:33:41.153Z,98951
2017-11-08T12:36:09.942Z,98972
2017-11-08T12:38:38.040Z,98986
2017-11-08T12:41:06.132Z,98997
2017-11-08T12:43:34.972Z,98990
2017-11-08T12:46:03.085Z,98991
2017-11-08T12:48:31.266Z,98996
2017-11-08T12:51:00.140Z,98994
2017-11-08T12:53:28.221Z,99001
2017-11-08T12:55:57.085Z,98996
2017-11-08T12:58:25.188Z,98993
2017-11-08T13:00:54.044Z,98996
2017-11-08T13:03:22.149Z,98998
2017-11-08T13:05:56.624Z,99000
2017-11-08T13:08:24.710Z,99004
2017-11-08T13:13:56.092Z,98999
2017-11-08T13:16:24.189Z,98993
2017-11-08T13:18:52.266Z,99001
2017-11-08T13:21:21.132Z,98999
2017-11-08T13:23:49.208Z,98991
2017-11-08T13:26:17.330Z,98991
2017-11-08T13:28:45.432Z,98989
2017-11-08T13:31:13.518Z,98988
2017-11-08T13:33:41.605Z,98990
2017-11-08T13:36:09.688Z,98978
2017-11-08T13:38:37.794Z,98978
2017-11-08T13:41:05.889Z,98977
2017-11-08T13:43:33.968Z,98979
2017-11-08T13:46:02.057Z,98979
2017-11-08T13:48:30.154Z,98984
2017-11-08T13:50:58.234Z,98987
2017-11-08T13:53:26.332Z,98987
2017-11-08T13:55:54.410Z,98990
2017-11-08T13:58:25.306Z,98993
2017-11-08T14:00:53.388Z,98989
2017-11-08T14:03:21.481Z,98994
2017-11-08T14:05:49.556Z,98995
2017-11-08T14:08:18.409Z,98997
2017-11-08T14:10:46.496Z,98993
2017-11-08T14:13:14.580Z,98987
2017-11-08T14:15:43.412Z,99005
2017-11-08T14:18:11.505Z,99007
2017-11-08T14:20:39.580Z,99006
2017-11-08T14:23:07.676Z,99013
2017-11-08T14:25:35.755Z,99018
2017-11-08T14:28:04.620Z,99022
2017-11-08T14:30:33.610Z,99020
2017-11-08T14:33:01.704Z,99023
2017-11-08T14:35:29.789Z,99026
2017-11-08T14:37:58.672Z,99028
2017-11-08T14:40:26.744Z,99027
2017-11-08T14:42:54.834Z,99022
2017-11-08T14:45:23.689Z,99019
2017-11-08T14:47:51.774Z,99025
2017-11-08T14:50:20.648Z,99027
2017-11-08T14:55:45.400Z,99024
2017-11-08T14:58:14.258Z,99029
2017-11-08T15:00:42.340Z,99030
2017-11-08T15:03:10.448Z,99038
2017-11-08T15:05:39.293Z,99036
2017-11-08T15:08:07.373Z,99049
2017-11-08T15:10:36.240Z,99049
2017-11-08T15:13:04.372Z,99050
2017-11-08T15:15:33.227Z,99059
2017-11-08T15:18:01.308Z,99060
2017-11-08T15:20:29.395Z,99059
2017-11-08T15:22:58.640Z,99053
2017-11-08T15:25:26.728Z,99060
2017-11-08T15:27:54.814Z,99067
2017-11-08T15:30:27.749Z,99070
2017-11-08T15:32:56.631Z,99070
2017-11-08T15:35:24.702Z,99065
2017-11-08T15:37:53.576Z,99074
2017-11-08T15:40:28.057Z,99070
2017-11-08T15:42:56.166Z,99070
2017-11-08T15:45:24.273Z,99080
2017-11-08T15:47:53.116Z,99078
2017-11-08T15:50:21.201Z,99072
2017-11-08T15:52:49.276Z,99081
2017-11-08T15:55:17.613Z,99080
2017-11-08T15:57:45.692Z,99079
2017-11-08T16:00:14.556Z,99081
2017-11-08T16:02:44.089Z,99090
2017-11-08T16:05:12.229Z,99087
2017-11-08T16:07:40.270Z,99094
2017-11-08T16:10:08.384Z,99096
2017-11-08T16:12:36.491Z,99094
2017-11-08T16:15:05.012Z,99095
2017-11-08T16:17:33.910Z,99095
2017-11-08T16:20:02.751Z,99100
2017-11-08T16:22:30.836Z,99098
2017-11-08T16:24:58.913Z,99106
2017-11-08T16:27:27.002Z,99101
2017-11-08T16:29:55.085Z,99100
2017-11-08T16:32:25.473Z,99096
2017-11-08T16:34:53.556Z,99090
2017-11-08T16:37:21.702Z,99092
2017-11-08T16:39:49.781Z,99087
2017-11-08T16:42:17.873Z,99080
2017-11-08T16:44:45.948Z,99088
2017-11-08T16:47:14.037Z,99088
2017-11-08T16:49:42.118Z,99087
2017-11-08T16:52:10.189Z,99098
2017-11-08T16:54:38.274Z,99098
2017-11-08T16:57:07.116Z,99096
2017-11-08T16:59:35.200Z,99101
2017-11-08T17:02:03.290Z,99102
2017-11-08T17:04:31.364Z,99100
2017-11-08T17:06:59.444Z,99102
2017-11-08T17:09:27.528Z,99112
2017-11-08T17:11:56.372Z,99107
2017-11-08T17:14:24.469Z,99113
2017-11-08T17:16:52.556Z,99105
2017-11-08T17:19:20.661Z,99109
2017-11-08T17:21:48.749Z,99113
2017-11-08T17:24:16.855Z,99106
2017-11-08T17:26:44.935Z,99110
2017-11-08T17:29:13.897Z,99109
2017-11-08T17:31:41.989Z,99113
2017-11-08T17:34:10.076Z,99116
2017-11-08T17:36:38.156Z,99123
2017-11-08T17:39:06.241Z,99115
2017-11-08T17:41:35.094Z,99111
2017-11-08T17:44:03.174Z,99114
2017-11-08T17:46:31.266Z,99113
2017-11-08T17:48:59.340Z,99115
2017-11-08T17:51:27.417Z,99112
2017-11-08T17:53:56.301Z,99120
2017-11-08T17:56:24.484Z,99126
2017-11-08T17:58:53.340Z,99129
2017-11-08T18:01:21.426Z,99126
2017-11-08T18:03:49.497Z,99127
2017-11-08T18:06:17.572Z,99126
2017-11-08T18:08:45.658Z,99137
2017-11-08T18:11:13.732Z,99126
2017-11-08T18:13:41.846Z,99142
2017-11-08T18:16:10.681Z,99132
2017-11-08T18:18:38.777Z,99136
2017-11-08T18:21:07.629Z,99132
2017-11-08T18:23:35.705Z,99138
2017-11-08T18:26:03.790Z,99141
2017-11-08T18:28:31.870Z,99142
2017-11-08T18:30:59.947Z,99147
2017-11-08T18:33:28.025Z,99154
2017-11-08T18:35:56.102Z,99164
2017-11-08T18:38:24.936Z,99175
2017-11-08T18:40:53.017Z,99182
2017-11-08T18:43:21.089Z,99171
2017-11-08T18:45:49.209Z,99178
2017-11-08T18:48:17.283Z,99172
2017-11-08T18:50:46.142Z,99191
2017-11-08T18:53:14.237Z,99183
2017-11-08T18:55:42.315Z,99188
2017-11-08T18:58:11.173Z,99184
2017-11-08T19:00:39.249Z,99191
2017-11-08T19:03:07.345Z,99201
2017-11-08T19:05:35.422Z,99207
2017-11-08T19:08:03.509Z,99198
2017-11-08T19:10:32.359Z,99200
2017-11-08T19:13:00.440Z,99211
2017-11-08T19:15:28.529Z,99201
2017-11-08T19:17:56.673Z,99196
2017-11-08T19:20:24.751Z,99208
2017-11-08T19:22:52.822Z,99211
2017-11-08T19:25:22.048Z,99215
2017-11-08T19:27:50.136Z,99214
2017-11-08T19:30:19.577Z,99223
2017-11-08T19:32:47.653Z,99214
2017-11-08T19:35:15.742Z,99219
2017-11-08T19:37:43.813Z,99221
2017-11-08T19:40:11.905Z,99218
2017-11-08T19:42:39.993Z,99217
2017-11-08T19:45:08.828Z,99219
2017-11-08T19:47:36.912Z,99221
2017-11-08T19:50:05.769Z,99222
2017-11-08T19:52:33.842Z,99227
2017-11-08T19:55:01.908Z,99223
2017-11-08T19:57:29.993Z,99220
2017-11-08T19:59:58.076Z,99228
2017-11-08T20:02:26.194Z,99228
2017-11-08T20:04:54.299Z,99234
2017-11-08T20:07:23.139Z,99227
2017-11-08T20:09:51.223Z,99226
2017-11-08T20:12:19.328Z,99220
2017-11-08T20:14:48.470Z,99227
2017-11-08T20:17:16.597Z,99241
2017-11-08T20:19:45.497Z,99232
2017-11-08T20:22:14.352Z,99231
2017-11-08T20:24:42.426Z,99232
2017-11-08T20:27:10.509Z,99228
2017-11-08T20:29:38.594Z,99225
2017-11-08T20:32:07.437Z,99231
2017-11-08T20:34:35.521Z,99227
2017-11-08T20:37:03.648Z,99222
2017-11-08T20:39:31.753Z,99229
2017-11-08T20:42:00.583Z,99220
2017-11-08T20:44:28.682Z,99227
2017-11-08T20:46:56.752Z,99232
2017-11-08T20:49:25.603Z,99232
2017-11-08T20:51:53.670Z,99233
2017-11-08T20:54:21.825Z,99227
2017-11-08T20:56:49.901Z,99235
2017-11-08T20:59:17.979Z,99241
2017-11-08T21:01:46.062Z,99250
2017-11-08T21:04:14.137Z,99245
2017-11-08T21:06:42.211Z,99245
2017-11-08T21:09:10.294Z,99250
2017-11-08T21:11:38.376Z,99261
2017-11-08T21:14:06.457Z,99261
2017-11-08T21:16:35.322Z,99256
2017-11-08T21:19:03.389Z,99255
2017-11-08T21:21:31.481Z,99256
2017-11-08T21:23:59.543Z,99254
2017-11-08T21:26:27.643Z,99255
2017-11-08T21:28:56.577Z,99265
2017-11-08T21:31:24.649Z,99262
2017-11-08T21:33:53.501Z,99264
2017-11-08T21:36:22.342Z,99279
2017-11-08T21:38:50.423Z,99269
2017-11-08T21:41:18.498Z,99261
2017-11-08T21:43:46.581Z,99261
2017-11-08T21:46:14.656Z,99264
2017-11-08T21:48:42.769Z,99260
2017-11-08T21:51:10.843Z,99267
2017-11-08T21:53:38.958Z,99267
2017-11-08T21:56:07.076Z,99266
2017-11-08T21:58:35.937Z,99280
2017-11-08T22:01:04.012Z,99270
2017-11-08T22:03:32.085Z,99276
2017-11-08T22:06:00.156Z,99265
2017-11-08T22:08:28.237Z,99261
2017-11-08T22:10:56.323Z,99280
2017-11-08T22:13:25.273Z,99291
2017-11-08T22:15:53.360Z,99284
2017-11-08T22:18:21.440Z,99291
2017-11-08T22:20:49.536Z,99291
2017-11-08T22:23:17.668Z,99293
2017-11-08T22:25:45.745Z,99289
2017-11-08T22:28:13.856Z,99278
2017-11-08T22:30:41.976Z,99278
2017-11-08T22:33:10.049Z,99280
2017-11-08T22:35:38.256Z,99289
2017-11-08T22:38:06.329Z,99289
2017-11-08T22:40:34.408Z,99293
2017-11-08T22:43:02.503Z,99284
2017-11-08T22:45:31.320Z,99283
2017-11-08T22:47:59.397Z,99286
2017-11-08T22:50:28.231Z,99281
2017-11-08T22:52:56.303Z,99289
2017-11-08T22:55:24.441Z,99293
2017-11-08T22:57:52.524Z,99283
2017-11-08T23:00:20.637Z,99281
2017-11-08T23:02:49.505Z,99289
2017-11-08T23:05:17.948Z,99292
2017-11-08T23:07:46.025Z,99294
2017-11-08T23:10:14.927Z,99293
2017-11-08T23:12:42.989Z,99289
2017-11-08T23:15:11.083Z,99289
2017-11-08T23:17:39.181Z,99289
2017-11-08T23:20:07.252Z,99289
2017-11-08T23:22:35.331Z,99294
2017-11-08T23:25:04.224Z,99292
2017-11-08T23:27:33.061Z,99292
2017-11-08T23:30:01.145Z,99300
2017-11-08T23:32:29.247Z,99299
2017-11-08T23:34:57.350Z,99298
2017-11-08T23:37:25.401Z,99288
2017-11-08T23:39:53.645Z,99291
2017-11-08T23:42:21.725Z,99288
2017-11-08T23:44:49.810Z,99289
2017-11-08T23:47:17.885Z,99278
2017-11-08T23:49:45.956Z,99279
2017-11-08T23:52:15.961Z,99289
2017-11-08T23:54:46.918Z,99285
2017-11-08T23:57:18.885Z,99281
2017-11-08T23:59:49.393Z,99282
